createdAt,value
2018-08-16T00:00:16.425Z,17.20
2018-08-16T00:02:45.420Z,17.20
2018-08-16T00:05:13.882Z,17.20
2018-08-16T00:07:42.204Z,17.20
2018-08-16T00:10:13.640Z,17.20
2018-08-16T00:12:43.247Z,17.20
2018-08-16T00:15:11.544Z,17.10
2018-08-16T00:17:40.503Z,17.10
2018-08-16T00:20:08.929Z,17.10
2018-08-16T00:22:37.237Z,17.00
2018-08-16T00:25:06.060Z,17.00
2018-08-16T00:27:34.393Z,17.00
2018-08-16T00:30:02.773Z,17.00
2018-08-16T00:32:31.069Z,16.90
2018-08-16T00:34:59.356Z,17.00
2018-08-16T00:37:27.688Z,17.00
2018-08-16T00:39:55.960Z,17.00
2018-08-16T00:42:24.256Z,16.90
2018-08-16T00:44:52.526Z,16.90
2018-08-16T00:47:20.810Z,16.90
2018-08-16T00:49:49.126Z,16.90
2018-08-16T00:52:17.412Z,16.90
2018-08-16T00:54:45.712Z,16.90
2018-08-16T00:57:14.009Z,16.90
2018-08-16T00:59:42.348Z,16.90
2018-08-16T01:02:10.628Z,16.90
2018-08-16T01:04:38.901Z,16.90
2018-08-16T01:07:07.208Z,16.90
2018-08-16T01:09:35.501Z,16.90
2018-08-16T01:12:03.819Z,16.80
2018-08-16T01:14:32.144Z,16.80
2018-08-16T01:17:00.545Z,16.80
2018-08-16T01:19:28.864Z,16.80
2018-08-16T01:21:57.177Z,16.80
2018-08-16T01:24:25.476Z,16.70
2018-08-16T01:26:53.796Z,16.60
2018-08-16T01:29:22.121Z,16.60
2018-08-16T01:31:50.650Z,16.60
2018-08-16T01:34:18.953Z,16.50
2018-08-16T01:36:47.236Z,16.50
2018-08-16T01:39:15.524Z,16.50
2018-08-16T01:41:43.834Z,16.40
2018-08-16T01:44:12.176Z,16.40
2018-08-16T01:46:40.449Z,16.40
2018-08-16T01:49:19.758Z,16.40
2018-08-16T01:51:48.041Z,16.40
2018-08-16T01:54:16.321Z,16.40
2018-08-16T01:56:44.597Z,16.30
2018-08-16T01:59:12.907Z,16.30
2018-08-16T02:01:41.174Z,16.30
2018-08-16T02:04:09.511Z,16.30
2018-08-16T02:06:38.092Z,16.20
2018-08-16T02:09:07.489Z,16.10
2018-08-16T02:11:35.865Z,16.10
2018-08-16T02:14:04.188Z,16.00
2018-08-16T02:16:32.465Z,16.00
2018-08-16T02:19:00.880Z,15.90
2018-08-16T02:21:29.238Z,16.00
2018-08-16T02:23:57.513Z,15.90
2018-08-16T02:26:25.849Z,15.80
2018-08-16T02:28:54.136Z,15.80
2018-08-16T02:31:22.647Z,15.80
2018-08-16T02:33:50.904Z,15.70
2018-08-16T02:36:19.192Z,15.70
2018-08-16T02:38:47.569Z,15.80
2018-08-16T02:41:16.133Z,15.80
2018-08-16T02:43:44.425Z,15.70
2018-08-16T02:46:12.749Z,15.70
2018-08-16T02:48:41.058Z,15.70
2018-08-16T02:51:09.541Z,15.60
2018-08-16T02:53:37.858Z,15.60
2018-08-16T02:56:06.200Z,15.60
2018-08-16T02:58:34.573Z,15.60
2018-08-16T03:01:03.234Z,15.60
2018-08-16T03:03:31.620Z,15.50
2018-08-16T03:06:00.046Z,15.50
2018-08-16T03:08:28.321Z,15.50
2018-08-16T03:10:56.600Z,15.50
2018-08-16T03:13:25.344Z,15.50
2018-08-16T03:15:53.646Z,15.50
2018-08-16T03:18:21.929Z,15.50
2018-08-16T03:20:50.207Z,15.50
2018-08-16T03:23:19.325Z,15.50
2018-08-16T03:25:47.601Z,15.50
2018-08-16T03:28:15.868Z,15.40
2018-08-16T03:30:44.157Z,15.40
2018-08-16T03:33:12.430Z,15.40
2018-08-16T03:35:40.701Z,15.40
2018-08-16T03:38:08.991Z,15.30
2018-08-16T03:40:37.252Z,15.30
2018-08-16T03:43:05.605Z,15.30
2018-08-16T03:45:33.904Z,15.20
2018-08-16T03:48:02.234Z,15.20
2018-08-16T03:50:30.493Z,15.20
2018-08-16T03:52:58.796Z,15.20
2018-08-16T03:55:27.152Z,15.10
2018-08-16T03:57:55.456Z,15.10
2018-08-16T04:00:23.728Z,15.10
2018-08-16T04:02:52.000Z,15.10
2018-08-16T04:05:20.281Z,15.10
2018-08-16T04:07:48.559Z,15.10
2018-08-16T04:10:16.829Z,15.10
2018-08-16T04:12:45.121Z,15.10
2018-08-16T04:15:13.393Z,15.10
2018-08-16T04:17:41.669Z,15.10
2018-08-16T04:20:09.953Z,15.10
2018-08-16T04:22:38.229Z,15.10
2018-08-16T04:25:06.568Z,15.10
2018-08-16T04:27:34.832Z,15.10
2018-08-16T04:30:03.156Z,15.10
2018-08-16T04:32:31.437Z,15.20
2018-08-16T04:34:59.743Z,15.20
2018-08-16T04:37:27.996Z,15.20
2018-08-16T04:39:56.276Z,15.20
2018-08-16T04:42:24.567Z,15.20
2018-08-16T04:44:52.845Z,15.30
2018-08-16T04:47:21.113Z,15.30
2018-08-16T04:49:49.421Z,15.30
2018-08-16T04:52:17.703Z,15.40
2018-08-16T04:54:45.982Z,15.40
2018-08-16T04:57:14.265Z,15.50
2018-08-16T04:59:42.553Z,15.60
2018-08-16T05:02:10.865Z,15.60
2018-08-16T05:04:39.144Z,15.70
2018-08-16T05:07:07.416Z,15.70
2018-08-16T05:09:35.717Z,15.80
2018-08-16T05:12:04.020Z,15.80
2018-08-16T05:14:32.313Z,15.80
2018-08-16T05:17:00.609Z,15.90
2018-08-16T05:19:28.889Z,16.00
2018-08-16T05:21:57.163Z,16.00
2018-08-16T05:24:25.440Z,16.00
2018-08-16T05:26:53.718Z,16.20
2018-08-16T05:29:21.975Z,16.20
2018-08-16T05:31:50.285Z,16.20
2018-08-16T05:34:18.601Z,16.30
2018-08-16T05:36:46.903Z,16.40
2018-08-16T05:39:15.200Z,16.40
2018-08-16T05:41:43.477Z,16.50
2018-08-16T05:44:11.772Z,16.60
2018-08-16T05:46:40.081Z,16.60
2018-08-16T05:49:08.390Z,16.70
2018-08-16T05:51:36.667Z,16.70
2018-08-16T05:54:04.988Z,16.90
2018-08-16T05:56:33.284Z,17.00
2018-08-16T05:59:01.602Z,17.10
2018-08-16T06:01:29.914Z,17.20
2018-08-16T06:03:58.253Z,17.30
2018-08-16T06:06:26.541Z,17.30
2018-08-16T06:08:54.857Z,17.50
2018-08-16T06:11:23.132Z,17.60
2018-08-16T06:13:51.436Z,17.80
2018-08-16T06:16:19.776Z,17.90
2018-08-16T06:18:48.060Z,18.00
2018-08-16T06:21:16.375Z,18.00
2018-08-16T06:23:44.711Z,18.10
2018-08-16T06:26:13.012Z,18.20
2018-08-16T06:28:41.307Z,18.30
2018-08-16T06:31:09.757Z,18.40
2018-08-16T06:33:37.929Z,18.40
2018-08-16T06:36:06.277Z,18.50
2018-08-16T06:38:34.625Z,18.60
2018-08-16T06:41:02.967Z,18.60
2018-08-16T06:43:31.282Z,18.70
2018-08-16T06:45:59.601Z,18.80
2018-08-16T06:48:27.910Z,18.90
2018-08-16T06:50:56.208Z,19.00
2018-08-16T06:53:24.488Z,19.10
2018-08-16T06:55:52.783Z,19.30
2018-08-16T06:58:21.125Z,19.30
2018-08-16T07:00:49.352Z,19.40
2018-08-16T07:03:17.649Z,19.60
2018-08-16T07:05:45.949Z,19.70
2018-08-16T07:08:14.281Z,19.80
2018-08-16T07:10:42.593Z,20.00
2018-08-16T07:13:10.892Z,20.30
2018-08-16T07:15:39.180Z,20.50
2018-08-16T07:18:07.645Z,20.50
2018-08-16T07:20:35.982Z,20.60
2018-08-16T07:23:04.352Z,20.50
2018-08-16T07:25:32.648Z,20.60
2018-08-16T07:28:00.937Z,20.70
2018-08-16T07:30:29.235Z,20.80
2018-08-16T07:32:57.537Z,21.00
2018-08-16T07:35:25.836Z,21.10
2018-08-16T07:37:54.157Z,21.00
2018-08-16T07:40:22.469Z,20.90
2018-08-16T07:42:50.796Z,20.90
2018-08-16T07:45:19.125Z,21.00
2018-08-16T07:47:47.404Z,21.00
2018-08-16T07:50:15.730Z,21.00
2018-08-16T07:52:44.057Z,21.10
2018-08-16T07:55:12.410Z,21.30
2018-08-16T07:57:40.717Z,21.50
2018-08-16T08:00:14.251Z,21.70
2018-08-16T08:02:42.810Z,21.80
2018-08-16T08:05:11.377Z,21.90
2018-08-16T08:07:39.718Z,21.90
2018-08-16T08:10:08.708Z,22.10
2018-08-16T08:12:37.112Z,22.20
2018-08-16T08:15:08.087Z,22.30
2018-08-16T08:17:36.636Z,22.40
2018-08-16T08:20:07.191Z,22.40
2018-08-16T08:22:35.495Z,22.50
2018-08-16T08:25:04.475Z,22.50
2018-08-16T08:27:32.760Z,22.60
2018-08-16T08:30:01.090Z,22.70
2018-08-16T08:32:30.072Z,22.60
2018-08-16T08:34:58.402Z,22.70
2018-08-16T08:37:37.905Z,22.80
2018-08-16T08:40:06.502Z,22.90
2018-08-16T08:42:34.816Z,23.10
2018-08-16T08:45:03.376Z,23.10
2018-08-16T08:47:37.076Z,23.20
2018-08-16T08:50:07.424Z,23.30
2018-08-16T08:52:36.311Z,23.10
2018-08-16T08:55:15.910Z,23.00
2018-08-16T08:57:57.841Z,23.00
2018-08-16T09:00:26.194Z,23.10
2018-08-16T09:02:54.736Z,23.10
2018-08-16T09:05:23.054Z,23.20
2018-08-16T09:07:51.732Z,23.30
2018-08-16T09:10:57.786Z,23.30
2018-08-16T09:14:40.518Z,23.30
2018-08-16T09:17:09.153Z,23.40
2018-08-16T09:19:38.339Z,23.50
2018-08-16T09:22:07.149Z,23.50
2018-08-16T09:24:35.469Z,23.60
2018-08-16T09:27:03.768Z,23.60
2018-08-16T09:30:16.256Z,23.70
2018-08-16T09:32:56.004Z,23.70
2018-08-16T09:35:24.901Z,23.80
2018-08-16T09:37:53.168Z,23.80
2018-08-16T09:40:22.023Z,23.80
2018-08-16T09:42:50.858Z,23.80
2018-08-16T09:45:30.911Z,23.90
2018-08-16T09:48:10.859Z,23.90
2018-08-16T09:50:39.459Z,23.90
2018-08-16T09:53:08.323Z,23.90
2018-08-16T09:55:36.618Z,24.00
2018-08-16T09:58:04.958Z,24.10
2018-08-16T10:00:38.695Z,24.20
2018-08-16T10:03:07.018Z,24.10
2018-08-16T10:05:35.312Z,24.20
2018-08-16T10:08:03.641Z,24.30
2018-08-16T10:10:31.929Z,24.40
2018-08-16T10:13:00.763Z,24.40
2018-08-16T10:15:29.729Z,24.50
2018-08-16T10:17:58.511Z,24.60
2018-08-16T10:20:26.883Z,24.60
2018-08-16T10:22:55.181Z,24.80
2018-08-16T10:25:23.453Z,24.90
2018-08-16T10:27:51.733Z,24.90
2018-08-16T10:30:20.029Z,25.00
2018-08-16T10:32:48.323Z,24.90
2018-08-16T10:35:16.585Z,24.80
2018-08-16T10:37:44.891Z,24.90
2018-08-16T10:40:13.159Z,25.00
2018-08-16T10:42:41.466Z,25.00
2018-08-16T10:45:09.777Z,25.00
2018-08-16T10:47:38.086Z,25.10
2018-08-16T10:50:06.471Z,25.20
2018-08-16T10:52:34.874Z,25.10
2018-08-16T10:55:03.177Z,25.10
2018-08-16T10:57:31.445Z,25.00
2018-08-16T10:59:59.733Z,24.80
2018-08-16T11:02:28.004Z,24.90
2018-08-16T11:04:56.288Z,24.90
2018-08-16T11:07:24.694Z,25.00
2018-08-16T11:09:52.930Z,25.00
2018-08-16T11:12:21.205Z,25.00
2018-08-16T11:14:49.493Z,25.10
2018-08-16T11:17:17.783Z,25.20
2018-08-16T11:19:46.046Z,25.20
2018-08-16T11:22:14.363Z,25.30
2018-08-16T11:24:42.658Z,25.30
2018-08-16T11:27:10.962Z,25.20
2018-08-16T11:29:39.240Z,25.20
2018-08-16T11:32:07.613Z,25.20
2018-08-16T11:34:35.890Z,25.20
2018-08-16T11:37:05.610Z,25.20
2018-08-16T11:39:34.572Z,25.40
2018-08-16T11:42:03.391Z,25.50
2018-08-16T11:44:32.276Z,25.60
2018-08-16T11:47:01.347Z,25.70
2018-08-16T11:49:30.380Z,25.70
2018-08-16T11:51:58.832Z,25.70
2018-08-16T11:54:28.042Z,25.70
2018-08-16T11:56:56.916Z,25.50
2018-08-16T11:59:25.204Z,25.50
2018-08-16T12:01:53.921Z,25.70
2018-08-16T12:04:23.114Z,25.80
2018-08-16T12:06:52.048Z,25.90
2018-08-16T12:09:20.342Z,26.00
2018-08-16T12:11:50.537Z,26.00
2018-08-16T12:14:19.380Z,26.10
2018-08-16T12:16:48.153Z,26.20
2018-08-16T12:19:16.810Z,26.20
2018-08-16T12:21:45.516Z,26.10
2018-08-16T12:24:14.468Z,26.10
2018-08-16T12:26:42.965Z,26.10
2018-08-16T12:29:11.748Z,26.10
2018-08-16T12:31:40.674Z,26.20
2018-08-16T12:34:09.269Z,26.00
2018-08-16T12:36:37.549Z,26.00
2018-08-16T12:39:06.569Z,26.10
2018-08-16T12:41:35.373Z,26.20
2018-08-16T12:44:04.079Z,26.20
2018-08-16T12:46:32.370Z,26.30
2018-08-16T12:49:00.681Z,26.20
2018-08-16T12:51:29.098Z,26.20
2018-08-16T12:53:57.433Z,26.20
2018-08-16T12:56:25.809Z,26.40
2018-08-16T12:58:56.766Z,26.40
2018-08-16T13:01:25.459Z,26.40
2018-08-16T13:03:54.637Z,26.40
2018-08-16T13:06:24.320Z,26.20
2018-08-16T13:08:52.655Z,26.00
2018-08-16T13:11:21.076Z,26.10
2018-08-16T13:13:49.433Z,26.20
2018-08-16T13:16:17.738Z,26.20
2018-08-16T13:18:46.124Z,26.30
2018-08-16T13:21:14.590Z,26.30
2018-08-16T13:23:42.915Z,26.40
2018-08-16T13:26:11.186Z,26.50
2018-08-16T13:28:39.481Z,26.30
2018-08-16T13:31:07.881Z,26.40
2018-08-16T13:33:36.205Z,26.30
2018-08-16T13:36:04.541Z,26.30
2018-08-16T13:38:32.834Z,26.40
2018-08-16T13:41:01.144Z,26.50
2018-08-16T13:43:29.433Z,26.60
2018-08-16T13:45:57.729Z,26.60
2018-08-16T13:48:26.030Z,26.70
2018-08-16T13:50:54.284Z,26.70
2018-08-16T13:53:22.569Z,26.70
2018-08-16T13:55:50.844Z,26.70
2018-08-16T13:58:30.156Z,26.60
2018-08-16T14:00:58.849Z,26.60
2018-08-16T14:03:27.140Z,26.70
2018-08-16T14:05:55.468Z,26.70
2018-08-16T14:08:23.816Z,26.70
2018-08-16T14:10:58.597Z,26.70
2018-08-16T14:13:38.464Z,26.80
2018-08-16T14:16:07.910Z,26.80
2018-08-16T14:18:36.326Z,26.90
2018-08-16T14:21:04.587Z,26.90
2018-08-16T14:23:32.893Z,26.90
2018-08-16T14:26:01.256Z,26.80
2018-08-16T14:28:29.617Z,26.80
2018-08-16T14:30:57.933Z,26.80
2018-08-16T14:33:26.200Z,26.80
2018-08-16T14:35:54.510Z,26.80
2018-08-16T14:38:22.784Z,26.80
2018-08-16T14:40:52.140Z,26.70
2018-08-16T14:43:20.434Z,26.80
2018-08-16T14:45:48.776Z,26.80
2018-08-16T14:48:17.040Z,26.80
2018-08-16T14:50:45.321Z,26.90
2018-08-16T14:53:13.628Z,27.00
2018-08-16T14:55:41.912Z,27.00
2018-08-16T14:58:10.207Z,26.90
2018-08-16T15:00:38.484Z,27.00
2018-08-16T15:03:06.947Z,27.00
2018-08-16T15:05:35.220Z,27.20
2018-08-16T15:08:03.512Z,27.20
2018-08-16T15:10:31.798Z,27.20
2018-08-16T15:13:00.089Z,27.20
2018-08-16T15:15:28.372Z,27.30
2018-08-16T15:17:56.674Z,27.30
2018-08-16T15:20:24.969Z,27.30
2018-08-16T15:22:53.315Z,27.40
2018-08-16T15:25:21.546Z,27.50
2018-08-16T15:27:49.813Z,27.50
2018-08-16T15:30:18.100Z,27.40
2018-08-16T15:32:46.432Z,27.30
2018-08-16T15:35:14.796Z,27.30
2018-08-16T15:37:43.095Z,27.10
2018-08-16T15:40:11.401Z,27.10
2018-08-16T15:42:39.716Z,27.00
2018-08-16T15:45:08.015Z,26.80
2018-08-16T15:47:36.293Z,26.90
2018-08-16T15:50:04.828Z,26.80
2018-08-16T15:52:33.094Z,26.80
2018-08-16T15:55:01.405Z,26.80
2018-08-16T15:57:29.675Z,26.80
2018-08-16T15:59:57.961Z,26.80
2018-08-16T16:02:26.283Z,26.80
2018-08-16T16:04:54.569Z,26.80
2018-08-16T16:07:22.888Z,26.80
2018-08-16T16:09:51.217Z,27.00
2018-08-16T16:12:19.520Z,27.10
2018-08-16T16:14:47.816Z,27.10
2018-08-16T16:17:16.136Z,27.20
2018-08-16T16:19:44.475Z,27.10
2018-08-16T16:22:12.792Z,27.00
2018-08-16T16:24:41.078Z,27.10
2018-08-16T16:27:09.349Z,27.10
2018-08-16T16:29:37.640Z,27.10
2018-08-16T16:32:06.465Z,27.20
2018-08-16T16:34:34.745Z,27.20
2018-08-16T16:37:03.047Z,27.00
2018-08-16T16:39:31.333Z,26.90
2018-08-16T16:41:59.665Z,26.90
2018-08-16T16:44:28.444Z,26.90
2018-08-16T16:46:56.756Z,26.80
2018-08-16T16:49:25.082Z,26.90
2018-08-16T16:51:54.397Z,27.00
2018-08-16T16:54:22.706Z,26.90
2018-08-16T16:56:51.371Z,26.80
2018-08-16T16:59:19.772Z,26.80
2018-08-16T17:01:48.129Z,26.90
2018-08-16T17:04:16.615Z,27.10
2018-08-16T17:06:44.952Z,27.40
2018-08-16T17:09:13.244Z,27.90
2018-08-16T17:11:42.252Z,28.30
2018-08-16T17:14:10.733Z,28.90
2018-08-16T17:16:39.079Z,29.70
2018-08-16T17:19:07.414Z,29.60
2018-08-16T17:21:35.698Z,29.70
2018-08-16T17:24:03.977Z,29.70
2018-08-16T17:26:32.416Z,30.00
2018-08-16T17:29:00.649Z,30.10
2018-08-16T17:31:28.944Z,30.00
2018-08-16T17:33:57.241Z,30.00
2018-08-16T17:36:25.512Z,30.20
2018-08-16T17:38:53.785Z,29.80
2018-08-16T17:41:22.074Z,30.00
2018-08-16T17:43:50.393Z,30.00
2018-08-16T17:46:18.705Z,29.60
2018-08-16T17:48:47.005Z,29.80
2018-08-16T17:51:15.273Z,29.70
2018-08-16T17:53:43.545Z,29.10
2018-08-16T17:56:11.825Z,28.30
2018-08-16T17:58:40.125Z,27.50
2018-08-16T18:01:08.433Z,26.90
2018-08-16T18:03:36.708Z,26.40
2018-08-16T18:06:05.009Z,25.90
2018-08-16T18:08:33.284Z,25.60
2018-08-16T18:11:01.554Z,25.30
2018-08-16T18:13:29.852Z,25.20
2018-08-16T18:15:58.130Z,25.00
2018-08-16T18:18:26.408Z,24.80
2018-08-16T18:20:54.700Z,24.60
2018-08-16T18:23:22.994Z,24.60
2018-08-16T18:25:51.252Z,24.40
2018-08-16T18:28:19.552Z,24.30
2018-08-16T18:30:47.832Z,24.20
2018-08-16T18:33:16.108Z,24.10
2018-08-16T18:35:44.427Z,24.00
2018-08-16T18:38:12.717Z,24.00
2018-08-16T18:40:41.005Z,23.80
2018-08-16T18:43:09.285Z,23.70
2018-08-16T18:45:37.629Z,23.60
2018-08-16T18:48:05.941Z,23.50
2018-08-16T18:50:34.245Z,23.40
2018-08-16T18:53:02.534Z,23.30
2018-08-16T18:55:30.878Z,23.20
2018-08-16T18:57:59.185Z,23.10
2018-08-16T19:00:27.474Z,23.00
2018-08-16T19:02:56.562Z,22.90
2018-08-16T19:05:24.950Z,22.80
2018-08-16T19:07:53.252Z,22.70
2018-08-16T19:10:21.596Z,22.70
2018-08-16T19:12:49.881Z,22.60
2018-08-16T19:15:18.248Z,22.50
2018-08-16T19:17:46.569Z,22.40
2018-08-16T19:20:14.874Z,22.40
2018-08-16T19:22:43.208Z,22.20
2018-08-16T19:25:11.516Z,22.20
2018-08-16T19:27:39.809Z,22.10
2018-08-16T19:30:08.216Z,22.00
2018-08-16T19:32:36.588Z,22.00
2018-08-16T19:35:05.176Z,21.90
2018-08-16T19:37:33.661Z,21.90
2018-08-16T19:40:01.973Z,21.80
2018-08-16T19:42:30.333Z,21.70
2018-08-16T19:44:58.650Z,21.60
2018-08-16T19:47:26.969Z,21.60
2018-08-16T19:49:55.261Z,21.50
2018-08-16T19:52:23.588Z,21.40
2018-08-16T19:54:51.896Z,21.30
2018-08-16T19:57:20.212Z,21.20
2018-08-16T19:59:48.499Z,21.20
2018-08-16T20:02:16.797Z,21.10
2018-08-16T20:04:45.085Z,21.00
2018-08-16T20:07:13.459Z,21.00
2018-08-16T20:09:41.673Z,21.00
2018-08-16T20:12:10.033Z,20.90
2018-08-16T20:14:38.328Z,20.80
2018-08-16T20:17:06.620Z,20.70
2018-08-16T20:19:35.016Z,20.60
2018-08-16T20:22:03.228Z,20.50
2018-08-16T20:24:31.507Z,20.50
2018-08-16T20:26:59.808Z,20.50
2018-08-16T20:29:28.077Z,20.50
2018-08-16T20:31:56.368Z,20.40
2018-08-16T20:34:24.649Z,20.30
2018-08-16T20:36:52.968Z,20.30
2018-08-16T20:39:21.274Z,20.30
2018-08-16T20:41:49.594Z,20.20
2018-08-16T20:44:17.815Z,20.20
2018-08-16T20:46:46.090Z,20.20
2018-08-16T20:49:14.368Z,20.10
2018-08-16T20:51:42.661Z,20.10
2018-08-16T20:54:10.922Z,20.00
2018-08-16T20:56:39.219Z,20.00
2018-08-16T20:59:07.537Z,19.90
2018-08-16T21:01:35.806Z,19.90
2018-08-16T21:04:04.141Z,19.90
2018-08-16T21:06:32.408Z,19.80
2018-08-16T21:09:00.705Z,19.80
2018-08-16T21:11:29.001Z,19.80
2018-08-16T21:13:57.288Z,19.80
2018-08-16T21:16:25.568Z,19.80
2018-08-16T21:18:53.885Z,19.70
2018-08-16T21:21:22.149Z,19.60
2018-08-16T21:23:50.416Z,19.50
2018-08-16T21:26:18.704Z,19.40
2018-08-16T21:28:46.994Z,19.30
2018-08-16T21:31:15.288Z,19.30
2018-08-16T21:33:43.573Z,19.20
2018-08-16T21:36:11.904Z,19.20
2018-08-16T21:38:40.190Z,19.20
2018-08-16T21:41:08.464Z,19.10
2018-08-16T21:43:36.745Z,19.10
2018-08-16T21:46:05.162Z,19.10
2018-08-16T21:48:33.449Z,19.00
2018-08-16T21:51:01.731Z,19.00
2018-08-16T21:53:30.019Z,19.00
2018-08-16T21:55:58.285Z,18.90
2018-08-16T21:58:26.551Z,18.90
2018-08-16T22:00:56.918Z,18.90
2018-08-16T22:03:26.447Z,18.90
2018-08-16T22:06:09.826Z,18.80
2018-08-16T22:08:41.837Z,18.70
2018-08-16T22:11:10.662Z,18.70
2018-08-16T22:13:39.116Z,18.60
2018-08-16T22:16:07.642Z,18.60
2018-08-16T22:18:36.069Z,18.50
2018-08-16T22:21:04.337Z,18.50
2018-08-16T22:23:32.609Z,18.40
2018-08-16T22:26:01.085Z,18.40
2018-08-16T22:28:29.422Z,18.30
2018-08-16T22:30:58.316Z,18.30
2018-08-16T22:33:26.662Z,18.20
2018-08-16T22:35:55.196Z,18.20
2018-08-16T22:38:23.477Z,18.20
2018-08-16T22:40:51.851Z,18.10
2018-08-16T22:43:20.172Z,18.10
2018-08-16T22:45:48.522Z,18.10
2018-08-16T22:48:16.952Z,18.00
2018-08-16T22:50:45.323Z,17.90
2018-08-16T22:53:13.598Z,17.80
2018-08-16T22:55:41.985Z,17.80
2018-08-16T22:58:10.357Z,17.70
2018-08-16T23:00:38.700Z,17.70
2018-08-16T23:03:07.006Z,17.70
2018-08-16T23:05:35.343Z,17.70
2018-08-16T23:08:03.697Z,17.60
2018-08-16T23:10:31.996Z,17.60
2018-08-16T23:13:00.326Z,17.60
2018-08-16T23:15:28.696Z,17.60
2018-08-16T23:17:57.077Z,17.50
2018-08-16T23:20:25.376Z,17.40
2018-08-16T23:22:53.676Z,17.30
2018-08-16T23:25:21.976Z,17.30
2018-08-16T23:27:50.270Z,17.30
2018-08-16T23:30:18.621Z,17.30
2018-08-16T23:32:46.905Z,17.30
2018-08-16T23:35:15.185Z,17.20
2018-08-16T23:37:43.512Z,17.20
2018-08-16T23:40:13.024Z,17.20
2018-08-16T23:42:41.559Z,17.10
2018-08-16T23:45:10.673Z,17.10
2018-08-16T23:47:38.997Z,17.10
2018-08-16T23:50:09.957Z,17.10
2018-08-16T23:52:38.331Z,17.10
2018-08-16T23:55:07.865Z,17.10
2018-08-16T23:57:36.216Z,17.10
